sensor_id;sensor_type;location;lat;lon;timestamp;temperature;humidity
9658;DHT22;4867;48.112;11.622;2023-07-20T00:00:15;21.70;97.80
9658;DHT22;4867;48.112;11.622;2023-07-20T00:03:13;21.70;97.70
9658;DHT22;4867;48.112;11.622;2023-07-20T00:05:44;21.60;97.80
9658;DHT22;4867;48.112;11.622;2023-07-20T00:08:12;21.60;97.70
9658;DHT22;4867;48.112;11.622;2023-07-20T00:10:40;21.50;97.70
9658;DHT22;4867;48.112;11.622;2023-07-20T00:13:08;21.50;97.90
9658;DHT22;4867;48.112;11.622;2023-07-20T00:15:36;21.50;98.00
9658;DHT22;4867;48.112;11.622;2023-07-20T00:18:05;21.50;98.10
9658;DHT22;4867;48.112;11.622;2023-07-20T00:20:33;21.50;98.10
9658;DHT22;4867;48.112;11.622;2023-07-20T00:23:01;21.40;98.20
9658;DHT22;4867;48.112;11.622;2023-07-20T00:25:28;21.30;98.30
9658;DHT22;4867;48.112;11.622;2023-07-20T00:27:55;21.40;98.50
9658;DHT22;4867;48.112;11.622;2023-07-20T00:30:23;21.40;98.50
9658;DHT22;4867;48.112;11.622;2023-07-20T00:32:50;21.40;98.50
9658;DHT22;4867;48.112;11.622;2023-07-20T00:35:18;21.30;98.80
9658;DHT22;4867;48.112;11.622;2023-07-20T00:37:45;21.30;98.70
9658;DHT22;4867;48.112;11.622;2023-07-20T00:40:12;21.30;98.70
9658;DHT22;4867;48.112;11.622;2023-07-20T00:42:39;21.30;98.80
9658;DHT22;4867;48.112;11.622;2023-07-20T00:45:07;21.30;99.10
9658;DHT22;4867;48.112;11.622;2023-07-20T00:47:34;21.30;99.00
9658;DHT22;4867;48.112;11.622;2023-07-20T00:50:04;21.30;99.00
9658;DHT22;4867;48.112;11.622;2023-07-20T00:52:33;21.20;99.00
9658;DHT22;4867;48.112;11.622;2023-07-20T00:55:01;21.20;99.00
9658;DHT22;4867;48.112;11.622;2023-07-20T00:57:30;21.30;99.20
9658;DHT22;4867;48.112;11.622;2023-07-20T00:59:57;21.30;99.50
9658;DHT22;4867;48.112;11.622;2023-07-20T01:02:24;21.30;99.20
9658;DHT22;4867;48.112;11.622;2023-07-20T01:04:52;21.30;99.30
9658;DHT22;4867;48.112;11.622;2023-07-20T01:07:26;21.30;99.40
9658;DHT22;4867;48.112;11.622;2023-07-20T01:10:12;21.30;99.50
9658;DHT22;4867;48.112;11.622;2023-07-20T01:12:48;21.40;99.90
9658;DHT22;4867;48.112;11.622;2023-07-20T01:15:19;21.30;99.90
9658;DHT22;4867;48.112;11.622;2023-07-20T01:17:46;21.30;99.80
9658;DHT22;4867;48.112;11.622;2023-07-20T01:20:15;21.30;99.90
9658;DHT22;4867;48.112;11.622;2023-07-20T01:26:11;21.30;99.90
9658;DHT22;4867;48.112;11.622;2023-07-20T01:31:27;21.20;99.90
9658;DHT22;4867;48.112;11.622;2023-07-20T01:33:57;21.30;99.90
9658;DHT22;4867;48.112;11.622;2023-07-20T01:36:28;21.30;99.90
9658;DHT22;4867;48.112;11.622;2023-07-20T01:38:56;21.30;99.90
9658;DHT22;4867;48.112;11.622;2023-07-20T01:41:24;21.20;99.90
9658;DHT22;4867;48.112;11.622;2023-07-20T01:43:51;21.20;99.90
9658;DHT22;4867;48.112;11.622;2023-07-20T01:46:18;21.10;99.90
9658;DHT22;4867;48.112;11.622;2023-07-20T01:48:46;21.10;99.90
9658;DHT22;4867;48.112;11.622;2023-07-20T01:51:13;21.10;99.90
9658;DHT22;4867;48.112;11.622;2023-07-20T01:53:41;21.00;99.90
9658;DHT22;4867;48.112;11.622;2023-07-20T01:56:08;21.00;99.90
9658;DHT22;4867;48.112;11.622;2023-07-20T01:58:35;21.00;99.90
9658;DHT22;4867;48.112;11.622;2023-07-20T02:01:03;21.00;99.90
9658;DHT22;4867;48.112;11.622;2023-07-20T02:03:30;20.90;99.90
9658;DHT22;4867;48.112;11.622;2023-07-20T02:05:58;20.90;99.90
9658;DHT22;4867;48.112;11.622;2023-07-20T02:08:26;20.90;99.90
9658;DHT22;4867;48.112;11.622;2023-07-20T02:10:56;20.90;99.90
9658;DHT22;4867;48.112;11.622;2023-07-20T02:13:24;20.90;99.90
9658;DHT22;4867;48.112;11.622;2023-07-20T02:15:51;20.90;99.90
9658;DHT22;4867;48.112;11.622;2023-07-20T02:18:18;20.90;99.90
9658;DHT22;4867;48.112;11.622;2023-07-20T02:20:46;20.90;99.90
9658;DHT22;4867;48.112;11.622;2023-07-20T02:23:13;20.90;99.90
9658;DHT22;4867;48.112;11.622;2023-07-20T02:25:40;20.80;99.90
9658;DHT22;4867;48.112;11.622;2023-07-20T02:28:08;20.80;99.90
9658;DHT22;4867;48.112;11.622;2023-07-20T02:30:39;20.80;99.90
9658;DHT22;4867;48.112;11.622;2023-07-20T02:33:07;20.80;99.90
9658;DHT22;4867;48.112;11.622;2023-07-20T02:35:34;20.70;99.90
9658;DHT22;4867;48.112;11.622;2023-07-20T02:38:02;20.70;99.90
9658;DHT22;4867;48.112;11.622;2023-07-20T02:40:30;20.70;99.90
9658;DHT22;4867;48.112;11.622;2023-07-20T02:42:57;20.60;99.90
9658;DHT22;4867;48.112;11.622;2023-07-20T02:45:24;20.60;99.90
9658;DHT22;4867;48.112;11.622;2023-07-20T02:47:52;20.60;99.90
9658;DHT22;4867;48.112;11.622;2023-07-20T02:50:19;20.60;99.90
9658;DHT22;4867;48.112;11.622;2023-07-20T02:52:46;20.60;99.90
9658;DHT22;4867;48.112;11.622;2023-07-20T02:55:13;20.60;99.90
9658;DHT22;4867;48.112;11.622;2023-07-20T02:57:41;20.60;99.90
9658;DHT22;4867;48.112;11.622;2023-07-20T03:00:09;20.60;99.90
9658;DHT22;4867;48.112;11.622;2023-07-20T03:02:38;20.50;99.90
9658;DHT22;4867;48.112;11.622;2023-07-20T03:05:06;20.40;99.90
9658;DHT22;4867;48.112;11.622;2023-07-20T03:07:34;20.30;99.90
9658;DHT22;4867;48.112;11.622;2023-07-20T03:10:01;20.10;99.90
9658;DHT22;4867;48.112;11.622;2023-07-20T03:12:30;19.90;99.90
9658;DHT22;4867;48.112;11.622;2023-07-20T03:14:57;19.80;99.90
9658;DHT22;4867;48.112;11.622;2023-07-20T03:17:25;19.60;99.90
9658;DHT22;4867;48.112;11.622;2023-07-20T03:19:53;19.50;99.90
9658;DHT22;4867;48.112;11.622;2023-07-20T03:22:20;19.60;99.90
9658;DHT22;4867;48.112;11.622;2023-07-20T03:24:50;19.40;99.90
9658;DHT22;4867;48.112;11.622;2023-07-20T03:27:18;19.20;99.90
9658;DHT22;4867;48.112;11.622;2023-07-20T03:29:46;19.20;99.90
9658;DHT22;4867;48.112;11.622;2023-07-20T03:32:13;19.20;99.90
9658;DHT22;4867;48.112;11.622;2023-07-20T03:34:41;19.20;99.90
9658;DHT22;4867;48.112;11.622;2023-07-20T03:37:08;19.10;99.90
9658;DHT22;4867;48.112;11.622;2023-07-20T03:39:36;19.00;99.90
9658;DHT22;4867;48.112;11.622;2023-07-20T03:42:04;18.90;99.90
9658;DHT22;4867;48.112;11.622;2023-07-20T03:44:33;18.90;99.90
9658;DHT22;4867;48.112;11.622;2023-07-20T03:47:00;18.80;99.90
9658;DHT22;4867;48.112;11.622;2023-07-20T03:49:28;18.70;99.90
9658;DHT22;4867;48.112;11.622;2023-07-20T03:51:56;18.70;99.90
9658;DHT22;4867;48.112;11.622;2023-07-20T03:54:23;18.60;99.90
9658;DHT22;4867;48.112;11.622;2023-07-20T03:56:51;18.60;99.90
9658;DHT22;4867;48.112;11.622;2023-07-20T03:59:18;18.60;99.90
9658;DHT22;4867;48.112;11.622;2023-07-20T04:01:45;18.60;99.90
9658;DHT22;4867;48.112;11.622;2023-07-20T04:04:16;18.60;99.90
9658;DHT22;4867;48.112;11.622;2023-07-20T04:06:43;18.60;99.90
9658;DHT22;4867;48.112;11.622;2023-07-20T04:09:13;18.60;99.90
9658;DHT22;4867;48.112;11.622;2023-07-20T04:11:41;18.50;99.90
9658;DHT22;4867;48.112;11.622;2023-07-20T04:14:08;18.60;99.90
9658;DHT22;4867;48.112;11.622;2023-07-20T04:16:35;18.50;99.90
9658;DHT22;4867;48.112;11.622;2023-07-20T04:19:03;18.50;99.90
9658;DHT22;4867;48.112;11.622;2023-07-20T04:21:31;18.40;99.90
9658;DHT22;4867;48.112;11.622;2023-07-20T04:23:58;18.50;99.90
9658;DHT22;4867;48.112;11.622;2023-07-20T04:26:26;18.60;99.90
9658;DHT22;4867;48.112;11.622;2023-07-20T04:28:53;18.50;99.90
9658;DHT22;4867;48.112;11.622;2023-07-20T04:31:33;18.50;99.90
9658;DHT22;4867;48.112;11.622;2023-07-20T04:34:01;18.50;99.90
9658;DHT22;4867;48.112;11.622;2023-07-20T04:36:28;18.60;99.90
9658;DHT22;4867;48.112;11.622;2023-07-20T04:38:56;18.60;99.90
9658;DHT22;4867;48.112;11.622;2023-07-20T04:41:24;18.60;99.90
9658;DHT22;4867;48.112;11.622;2023-07-20T04:43:55;18.60;99.90
9658;DHT22;4867;48.112;11.622;2023-07-20T04:46:28;18.60;99.90
9658;DHT22;4867;48.112;11.622;2023-07-20T04:48:57;18.70;99.90
9658;DHT22;4867;48.112;11.622;2023-07-20T04:51:26;18.70;99.90
9658;DHT22;4867;48.112;11.622;2023-07-20T04:53:55;18.70;99.90
9658;DHT22;4867;48.112;11.622;2023-07-20T04:56:28;18.80;99.90
9658;DHT22;4867;48.112;11.622;2023-07-20T04:58:57;18.90;99.90
9658;DHT22;4867;48.112;11.622;2023-07-20T05:01:24;18.90;99.90
9658;DHT22;4867;48.112;11.622;2023-07-20T05:03:53;18.90;99.90
9658;DHT22;4867;48.112;11.622;2023-07-20T05:06:22;18.90;99.90
9658;DHT22;4867;48.112;11.622;2023-07-20T05:08:49;18.90;99.90
9658;DHT22;4867;48.112;11.622;2023-07-20T05:11:17;19.00;99.90
9658;DHT22;4867;48.112;11.622;2023-07-20T05:13:44;19.00;99.90
9658;DHT22;4867;48.112;11.622;2023-07-20T05:16:12;19.00;99.90
9658;DHT22;4867;48.112;11.622;2023-07-20T05:18:39;19.00;99.90
9658;DHT22;4867;48.112;11.622;2023-07-20T05:21:08;19.00;99.90
9658;DHT22;4867;48.112;11.622;2023-07-20T05:23:35;19.00;99.90
9658;DHT22;4867;48.112;11.622;2023-07-20T05:26:02;19.10;99.90
9658;DHT22;4867;48.112;11.622;2023-07-20T05:28:30;19.20;99.90
9658;DHT22;4867;48.112;11.622;2023-07-20T05:30:57;19.10;99.90
9658;DHT22;4867;48.112;11.622;2023-07-20T05:33:26;19.20;99.90
9658;DHT22;4867;48.112;11.622;2023-07-20T05:35:53;19.10;99.90
9658;DHT22;4867;48.112;11.622;2023-07-20T05:38:21;19.10;99.90
9658;DHT22;4867;48.112;11.622;2023-07-20T05:40:48;19.10;99.90
9658;DHT22;4867;48.112;11.622;2023-07-20T05:43:16;19.20;99.90
9658;DHT22;4867;48.112;11.622;2023-07-20T05:45:43;19.20;99.90
9658;DHT22;4867;48.112;11.622;2023-07-20T05:48:12;19.20;99.90
9658;DHT22;4867;48.112;11.622;2023-07-20T05:50:43;19.30;99.90
9658;DHT22;4867;48.112;11.622;2023-07-20T05:53:11;19.30;99.90
9658;DHT22;4867;48.112;11.622;2023-07-20T05:55:38;19.40;99.90
9658;DHT22;4867;48.112;11.622;2023-07-20T05:58:07;19.50;99.90
9658;DHT22;4867;48.112;11.622;2023-07-20T06:00:34;19.40;99.90
9658;DHT22;4867;48.112;11.622;2023-07-20T06:03:01;19.40;99.90
9658;DHT22;4867;48.112;11.622;2023-07-20T06:05:29;19.60;99.90
9658;DHT22;4867;48.112;11.622;2023-07-20T06:07:57;19.70;99.90
9658;DHT22;4867;48.112;11.622;2023-07-20T06:10:25;19.60;99.90
9658;DHT22;4867;48.112;11.622;2023-07-20T06:12:53;19.60;99.90
9658;DHT22;4867;48.112;11.622;2023-07-20T06:15:27;19.60;99.90
9658;DHT22;4867;48.112;11.622;2023-07-20T06:17:55;19.80;99.90
9658;DHT22;4867;48.112;11.622;2023-07-20T06:20:24;19.80;99.90
9658;DHT22;4867;48.112;11.622;2023-07-20T06:22:51;19.90;99.90
9658;DHT22;4867;48.112;11.622;2023-07-20T06:25:18;20.10;99.90
9658;DHT22;4867;48.112;11.622;2023-07-20T06:27:45;20.30;99.90
9658;DHT22;4867;48.112;11.622;2023-07-20T06:30:13;20.40;99.90
9658;DHT22;4867;48.112;11.622;2023-07-20T06:32:40;20.60;99.90
9658;DHT22;4867;48.112;11.622;2023-07-20T06:35:07;20.70;99.90
9658;DHT22;4867;48.112;11.622;2023-07-20T06:37:35;20.70;99.90
9658;DHT22;4867;48.112;11.622;2023-07-20T06:40:03;20.60;99.90
9658;DHT22;4867;48.112;11.622;2023-07-20T06:42:34;20.50;99.90
9658;DHT22;4867;48.112;11.622;2023-07-20T06:45:05;20.50;99.90
9658;DHT22;4867;48.112;11.622;2023-07-20T06:47:32;20.60;99.90
9658;DHT22;4867;48.112;11.622;2023-07-20T06:49:59;20.60;99.90
9658;DHT22;4867;48.112;11.622;2023-07-20T06:52:26;20.70;99.90
9658;DHT22;4867;48.112;11.622;2023-07-20T06:54:54;20.70;99.90
9658;DHT22;4867;48.112;11.622;2023-07-20T06:57:21;20.80;99.90
9658;DHT22;4867;48.112;11.622;2023-07-20T06:59:53;20.90;99.90
9658;DHT22;4867;48.112;11.622;2023-07-20T07:02:21;21.00;99.90
9658;DHT22;4867;48.112;11.622;2023-07-20T07:04:48;21.10;99.90
9658;DHT22;4867;48.112;11.622;2023-07-20T07:07:15;21.20;99.90
9658;DHT22;4867;48.112;11.622;2023-07-20T07:09:53;21.30;99.90
9658;DHT22;4867;48.112;11.622;2023-07-20T07:12:20;21.40;99.90
9658;DHT22;4867;48.112;11.622;2023-07-20T07:14:47;21.30;99.90
9658;DHT22;4867;48.112;11.622;2023-07-20T07:17:15;21.50;99.90
9658;DHT22;4867;48.112;11.622;2023-07-20T07:19:46;21.70;99.90
9658;DHT22;4867;48.112;11.622;2023-07-20T07:22:15;21.70;99.90
9658;DHT22;4867;48.112;11.622;2023-07-20T07:24:43;21.80;99.90
9658;DHT22;4867;48.112;11.622;2023-07-20T07:27:10;22.30;99.90
9658;DHT22;4867;48.112;11.622;2023-07-20T07:29:38;22.40;99.90
9658;DHT22;4867;48.112;11.622;2023-07-20T07:32:05;22.80;99.90
9658;DHT22;4867;48.112;11.622;2023-07-20T07:34:33;22.90;99.90
9658;DHT22;4867;48.112;11.622;2023-07-20T07:37:01;22.90;99.90
9658;DHT22;4867;48.112;11.622;2023-07-20T07:39:29;22.90;99.90
9658;DHT22;4867;48.112;11.622;2023-07-20T07:42:00;22.90;99.90
9658;DHT22;4867;48.112;11.622;2023-07-20T07:44:27;22.90;99.90
9658;DHT22;4867;48.112;11.622;2023-07-20T07:46:54;22.60;99.30
9658;DHT22;4867;48.112;11.622;2023-07-20T07:49:22;22.70;99.90
9658;DHT22;4867;48.112;11.622;2023-07-20T07:51:49;22.80;99.90
9658;DHT22;4867;48.112;11.622;2023-07-20T07:54:16;22.70;99.80
9658;DHT22;4867;48.112;11.622;2023-07-20T07:56:44;22.80;99.90
9658;DHT22;4867;48.112;11.622;2023-07-20T07:59:11;23.00;99.90
9658;DHT22;4867;48.112;11.622;2023-07-20T08:01:39;23.20;99.60
9658;DHT22;4867;48.112;11.622;2023-07-20T08:04:06;23.00;98.30
9658;DHT22;4867;48.112;11.622;2023-07-20T08:06:33;23.10;99.00
9658;DHT22;4867;48.112;11.622;2023-07-20T08:09:00;23.30;99.40
9658;DHT22;4867;48.112;11.622;2023-07-20T08:11:30;23.30;99.00
9658;DHT22;4867;48.112;11.622;2023-07-20T08:14:00;23.40;99.10
9658;DHT22;4867;48.112;11.622;2023-07-20T08:16:27;23.40;99.00
9658;DHT22;4867;48.112;11.622;2023-07-20T08:18:56;23.40;97.80
9658;DHT22;4867;48.112;11.622;2023-07-20T08:21:23;23.10;97.40
9658;DHT22;4867;48.112;11.622;2023-07-20T08:23:50;22.90;98.90
9658;DHT22;4867;48.112;11.622;2023-07-20T08:26:18;23.00;99.40
9658;DHT22;4867;48.112;11.622;2023-07-20T08:28:45;23.10;99.50
9658;DHT22;4867;48.112;11.622;2023-07-20T08:31:15;23.30;98.20
9658;DHT22;4867;48.112;11.622;2023-07-20T08:33:42;23.20;99.00
9658;DHT22;4867;48.112;11.622;2023-07-20T08:36:10;23.40;99.00
9658;DHT22;4867;48.112;11.622;2023-07-20T08:38:38;23.50;99.50
9658;DHT22;4867;48.112;11.622;2023-07-20T08:41:05;23.60;99.40
9658;DHT22;4867;48.112;11.622;2023-07-20T08:43:33;23.70;99.30
9658;DHT22;4867;48.112;11.622;2023-07-20T08:46:02;23.80;98.70
9658;DHT22;4867;48.112;11.622;2023-07-20T08:48:31;23.90;98.50
9658;DHT22;4867;48.112;11.622;2023-07-20T08:50:58;24.10;98.40
9658;DHT22;4867;48.112;11.622;2023-07-20T08:53:28;24.10;97.40
9658;DHT22;4867;48.112;11.622;2023-07-20T08:55:56;24.00;98.00
9658;DHT22;4867;48.112;11.622;2023-07-20T08:58:25;23.90;97.60
9658;DHT22;4867;48.112;11.622;2023-07-20T09:00:54;23.90;97.70
9658;DHT22;4867;48.112;11.622;2023-07-20T09:03:21;24.00;97.70
9658;DHT22;4867;48.112;11.622;2023-07-20T09:05:49;24.10;97.50
9658;DHT22;4867;48.112;11.622;2023-07-20T09:08:17;24.20;98.20
9658;DHT22;4867;48.112;11.622;2023-07-20T09:10:44;24.40;97.40
9658;DHT22;4867;48.112;11.622;2023-07-20T09:13:15;24.50;97.80
9658;DHT22;4867;48.112;11.622;2023-07-20T09:15:46;24.60;96.60
9658;DHT22;4867;48.112;11.622;2023-07-20T09:18:27;24.60;96.90
9658;DHT22;4867;48.112;11.622;2023-07-20T09:21:05;24.60;96.50
9658;DHT22;4867;48.112;11.622;2023-07-20T09:23:34;24.50;96.40
9658;DHT22;4867;48.112;11.622;2023-07-20T09:26:12;24.70;97.50
9658;DHT22;4867;48.112;11.622;2023-07-20T09:28:44;24.70;96.30
9658;DHT22;4867;48.112;11.622;2023-07-20T09:31:21;24.70;96.50
9658;DHT22;4867;48.112;11.622;2023-07-20T09:33:50;24.70;96.50
9658;DHT22;4867;48.112;11.622;2023-07-20T09:36:21;24.70;96.30
9658;DHT22;4867;48.112;11.622;2023-07-20T09:39:08;25.00;96.40
9658;DHT22;4867;48.112;11.622;2023-07-20T09:41:40;25.40;96.20
9658;DHT22;4867;48.112;11.622;2023-07-20T09:44:16;25.50;95.30
9658;DHT22;4867;48.112;11.622;2023-07-20T09:46:47;25.40;95.00
9658;DHT22;4867;48.112;11.622;2023-07-20T09:49:18;25.30;95.20
9658;DHT22;4867;48.112;11.622;2023-07-20T09:51:48;25.10;95.00
9658;DHT22;4867;48.112;11.622;2023-07-20T09:54:16;24.90;94.60
9658;DHT22;4867;48.112;11.622;2023-07-20T09:56:45;24.90;93.90
9658;DHT22;4867;48.112;11.622;2023-07-20T09:59:14;24.70;94.60
9658;DHT22;4867;48.112;11.622;2023-07-20T10:01:43;24.60;93.80
9658;DHT22;4867;48.112;11.622;2023-07-20T10:04:11;24.60;93.70
9658;DHT22;4867;48.112;11.622;2023-07-20T10:06:42;24.50;93.70
9658;DHT22;4867;48.112;11.622;2023-07-20T10:09:10;24.50;93.60
9658;DHT22;4867;48.112;11.622;2023-07-20T10:11:43;24.80;94.90
9658;DHT22;4867;48.112;11.622;2023-07-20T10:14:12;24.90;94.20
9658;DHT22;4867;48.112;11.622;2023-07-20T10:16:49;24.90;94.10
9658;DHT22;4867;48.112;11.622;2023-07-20T10:22:08;25.20;94.50
9658;DHT22;4867;48.112;11.622;2023-07-20T10:24:39;25.40;94.00
9658;DHT22;4867;48.112;11.622;2023-07-20T10:27:08;25.50;93.20
9658;DHT22;4867;48.112;11.622;2023-07-20T10:29:36;25.50;93.60
9658;DHT22;4867;48.112;11.622;2023-07-20T10:32:04;25.40;93.90
9658;DHT22;4867;48.112;11.622;2023-07-20T10:34:34;25.40;94.10
9658;DHT22;4867;48.112;11.622;2023-07-20T10:37:02;25.30;94.20
9658;DHT22;4867;48.112;11.622;2023-07-20T10:39:31;25.30;93.70
9658;DHT22;4867;48.112;11.622;2023-07-20T10:42:09;25.30;93.00
9658;DHT22;4867;48.112;11.622;2023-07-20T10:44:37;25.20;92.50
9658;DHT22;4867;48.112;11.622;2023-07-20T10:47:12;24.90;92.50
9658;DHT22;4867;48.112;11.622;2023-07-20T10:49:59;24.60;92.70
9658;DHT22;4867;48.112;11.622;2023-07-20T10:52:37;24.90;93.20
9658;DHT22;4867;48.112;11.622;2023-07-20T10:55:14;24.70;93.00
9658;DHT22;4867;48.112;11.622;2023-07-20T10:57:42;24.70;93.40
9658;DHT22;4867;48.112;11.622;2023-07-20T11:00:11;24.80;92.70
9658;DHT22;4867;48.112;11.622;2023-07-20T11:02:46;24.80;92.90
9658;DHT22;4867;48.112;11.622;2023-07-20T11:05:37;24.90;93.30
9658;DHT22;4867;48.112;11.622;2023-07-20T11:08:09;25.00;93.20
9658;DHT22;4867;48.112;11.622;2023-07-20T11:10:37;24.90;92.70
9658;DHT22;4867;48.112;11.622;2023-07-20T11:13:21;24.70;92.90
9658;DHT22;4867;48.112;11.622;2023-07-20T11:18:26;24.70;92.30
9658;DHT22;4867;48.112;11.622;2023-07-20T11:20:53;24.90;92.60
9658;DHT22;4867;48.112;11.622;2023-07-20T11:23:21;25.10;92.70
9658;DHT22;4867;48.112;11.622;2023-07-20T11:25:49;25.00;92.70
9658;DHT22;4867;48.112;11.622;2023-07-20T11:28:17;24.90;93.30
9658;DHT22;4867;48.112;11.622;2023-07-20T11:30:44;24.50;92.20
9658;DHT22;4867;48.112;11.622;2023-07-20T11:33:11;24.50;93.40
9658;DHT22;4867;48.112;11.622;2023-07-20T11:35:45;24.70;93.90
9658;DHT22;4867;48.112;11.622;2023-07-20T11:38:16;24.90;92.90
9658;DHT22;4867;48.112;11.622;2023-07-20T11:40:45;24.80;92.40
9658;DHT22;4867;48.112;11.622;2023-07-20T11:43:13;25.00;92.10
9658;DHT22;4867;48.112;11.622;2023-07-20T11:45:44;25.00;92.70
9658;DHT22;4867;48.112;11.622;2023-07-20T11:48:15;25.00;92.00
9658;DHT22;4867;48.112;11.622;2023-07-20T11:50:44;25.30;92.70
9658;DHT22;4867;48.112;11.622;2023-07-20T11:53:12;25.30;92.00
9658;DHT22;4867;48.112;11.622;2023-07-20T11:55:40;25.50;92.10
9658;DHT22;4867;48.112;11.622;2023-07-20T11:58:09;25.70;92.30
9658;DHT22;4867;48.112;11.622;2023-07-20T12:00:38;25.70;92.30
9658;DHT22;4867;48.112;11.622;2023-07-20T12:03:06;25.80;91.50
9658;DHT22;4867;48.112;11.622;2023-07-20T12:05:40;25.80;91.30
9658;DHT22;4867;48.112;11.622;2023-07-20T12:08:21;25.70;91.00
9658;DHT22;4867;48.112;11.622;2023-07-20T12:10:49;26.00;91.40
9658;DHT22;4867;48.112;11.622;2023-07-20T12:13:17;25.90;90.10
9658;DHT22;4867;48.112;11.622;2023-07-20T12:15:44;26.00;90.70
9658;DHT22;4867;48.112;11.622;2023-07-20T12:18:12;26.50;91.00
9658;DHT22;4867;48.112;11.622;2023-07-20T12:20:39;26.50;89.40
9658;DHT22;4867;48.112;11.622;2023-07-20T12:23:11;26.20;90.60
9658;DHT22;4867;48.112;11.622;2023-07-20T12:28:15;26.10;89.50
9658;DHT22;4867;48.112;11.622;2023-07-20T12:30:43;26.20;89.80
9658;DHT22;4867;48.112;11.622;2023-07-20T12:33:11;26.40;88.40
9658;DHT22;4867;48.112;11.622;2023-07-20T12:35:42;26.40;90.20
9658;DHT22;4867;48.112;11.622;2023-07-20T12:38:12;26.40;90.10
9658;DHT22;4867;48.112;11.622;2023-07-20T12:40:40;26.20;89.90
9658;DHT22;4867;48.112;11.622;2023-07-20T12:43:08;25.90;89.60
9658;DHT22;4867;48.112;11.622;2023-07-20T12:45:36;25.90;90.70
9658;DHT22;4867;48.112;11.622;2023-07-20T12:48:03;26.00;90.00
9658;DHT22;4867;48.112;11.622;2023-07-20T12:50:31;25.90;89.60
9658;DHT22;4867;48.112;11.622;2023-07-20T12:52:58;26.00;89.00
9658;DHT22;4867;48.112;11.622;2023-07-20T12:55:25;26.00;90.30
9658;DHT22;4867;48.112;11.622;2023-07-20T12:57:52;26.20;90.50
9658;DHT22;4867;48.112;11.622;2023-07-20T13:00:20;26.50;91.20
9658;DHT22;4867;48.112;11.622;2023-07-20T13:02:50;26.70;91.10
9658;DHT22;4867;48.112;11.622;2023-07-20T13:05:34;26.80;89.20
9658;DHT22;4867;48.112;11.622;2023-07-20T13:08:05;26.70;88.10
9658;DHT22;4867;48.112;11.622;2023-07-20T13:10:35;26.30;88.30
9658;DHT22;4867;48.112;11.622;2023-07-20T13:13:03;26.60;90.30
9658;DHT22;4867;48.112;11.622;2023-07-20T13:15:31;26.90;90.30
9658;DHT22;4867;48.112;11.622;2023-07-20T13:17:59;27.00;87.80
9658;DHT22;4867;48.112;11.622;2023-07-20T13:20:27;26.90;88.00
9658;DHT22;4867;48.112;11.622;2023-07-20T13:22:55;26.60;87.80
9658;DHT22;4867;48.112;11.622;2023-07-20T13:25:22;26.90;89.80
9658;DHT22;4867;48.112;11.622;2023-07-20T13:27:49;27.00;86.80
9658;DHT22;4867;48.112;11.622;2023-07-20T13:30:17;26.90;89.10
9658;DHT22;4867;48.112;11.622;2023-07-20T13:32:44;27.00;89.10
9658;DHT22;4867;48.112;11.622;2023-07-20T13:35:12;27.00;87.80
9658;DHT22;4867;48.112;11.622;2023-07-20T13:37:39;26.90;89.10
9658;DHT22;4867;48.112;11.622;2023-07-20T13:40:07;27.00;87.60
9658;DHT22;4867;48.112;11.622;2023-07-20T13:42:39;26.80;86.40
9658;DHT22;4867;48.112;11.622;2023-07-20T13:45:08;26.90;88.60
9658;DHT22;4867;48.112;11.622;2023-07-20T13:47:35;27.20;87.40
9658;DHT22;4867;48.112;11.622;2023-07-20T13:50:04;27.00;85.60
9658;DHT22;4867;48.112;11.622;2023-07-20T13:52:32;26.70;84.30
9658;DHT22;4867;48.112;11.622;2023-07-20T13:55:02;26.70;86.30
9658;DHT22;4867;48.112;11.622;2023-07-20T13:57:32;26.70;88.40
9658;DHT22;4867;48.112;11.622;2023-07-20T14:00:03;26.80;87.60
9658;DHT22;4867;48.112;11.622;2023-07-20T14:02:37;26.80;85.60
9658;DHT22;4867;48.112;11.622;2023-07-20T14:05:08;26.70;86.70
9658;DHT22;4867;48.112;11.622;2023-07-20T14:07:39;26.70;86.00
9658;DHT22;4867;48.112;11.622;2023-07-20T14:10:07;26.70;85.80
9658;DHT22;4867;48.112;11.622;2023-07-20T14:12:37;26.70;88.20
9658;DHT22;4867;48.112;11.622;2023-07-20T14:15:05;26.90;85.90
9658;DHT22;4867;48.112;11.622;2023-07-20T14:17:32;27.00;87.10
9658;DHT22;4867;48.112;11.622;2023-07-20T14:20:00;27.20;86.70
9658;DHT22;4867;48.112;11.622;2023-07-20T14:22:27;27.00;85.10
9658;DHT22;4867;48.112;11.622;2023-07-20T14:24:54;26.70;83.20
9658;DHT22;4867;48.112;11.622;2023-07-20T14:27:25;26.50;83.40
9658;DHT22;4867;48.112;11.622;2023-07-20T14:29:52;26.50;83.80
9658;DHT22;4867;48.112;11.622;2023-07-20T14:32:20;26.50;83.90
9658;DHT22;4867;48.112;11.622;2023-07-20T14:34:47;26.20;83.80
9658;DHT22;4867;48.112;11.622;2023-07-20T14:37:14;26.10;83.70
9658;DHT22;4867;48.112;11.622;2023-07-20T14:39:41;26.10;82.80
9658;DHT22;4867;48.112;11.622;2023-07-20T14:42:09;26.30;83.20
9658;DHT22;4867;48.112;11.622;2023-07-20T14:44:36;26.50;85.10
9658;DHT22;4867;48.112;11.622;2023-07-20T14:47:04;26.10;82.30
9658;DHT22;4867;48.112;11.622;2023-07-20T14:49:41;26.00;83.70
9658;DHT22;4867;48.112;11.622;2023-07-20T14:52:08;25.90;83.40
9658;DHT22;4867;48.112;11.622;2023-07-20T14:54:38;26.00;84.20
9658;DHT22;4867;48.112;11.622;2023-07-20T14:57:06;26.20;84.30
9658;DHT22;4867;48.112;11.622;2023-07-20T14:59:42;26.10;83.60
9658;DHT22;4867;48.112;11.622;2023-07-20T15:02:09;26.10;84.90
9658;DHT22;4867;48.112;11.622;2023-07-20T15:04:36;26.00;83.30
9658;DHT22;4867;48.112;11.622;2023-07-20T15:07:04;26.10;83.20
9658;DHT22;4867;48.112;11.622;2023-07-20T15:09:31;26.20;84.30
9658;DHT22;4867;48.112;11.622;2023-07-20T15:12:01;26.30;84.00
9658;DHT22;4867;48.112;11.622;2023-07-20T15:14:28;26.30;84.00
9658;DHT22;4867;48.112;11.622;2023-07-20T15:16:55;26.10;84.40
9658;DHT22;4867;48.112;11.622;2023-07-20T15:19:22;26.00;83.90
9658;DHT22;4867;48.112;11.622;2023-07-20T15:21:49;26.10;84.50
9658;DHT22;4867;48.112;11.622;2023-07-20T15:24:17;26.40;85.80
9658;DHT22;4867;48.112;11.622;2023-07-20T15:26:44;26.70;86.40
9658;DHT22;4867;48.112;11.622;2023-07-20T15:29:11;26.90;86.10
9658;DHT22;4867;48.112;11.622;2023-07-20T15:31:41;27.00;82.90
9658;DHT22;4867;48.112;11.622;2023-07-20T15:34:11;27.10;82.70
9658;DHT22;4867;48.112;11.622;2023-07-20T15:36:41;27.30;85.70
9658;DHT22;4867;48.112;11.622;2023-07-20T15:39:08;27.40;83.50
9658;DHT22;4867;48.112;11.622;2023-07-20T15:41:36;27.40;83.90
9658;DHT22;4867;48.112;11.622;2023-07-20T15:44:03;27.30;83.80
9658;DHT22;4867;48.112;11.622;2023-07-20T15:46:45;27.30;84.90
9658;DHT22;4867;48.112;11.622;2023-07-20T15:49:15;27.50;81.90
9658;DHT22;4867;48.112;11.622;2023-07-20T15:51:42;27.60;81.70
9658;DHT22;4867;48.112;11.622;2023-07-20T15:54:10;27.80;82.90
9658;DHT22;4867;48.112;11.622;2023-07-20T15:56:39;27.90;83.50
9658;DHT22;4867;48.112;11.622;2023-07-20T15:59:09;27.90;82.10
9658;DHT22;4867;48.112;11.622;2023-07-20T16:01:37;28.00;81.90
9658;DHT22;4867;48.112;11.622;2023-07-20T16:04:06;28.50;82.30
9658;DHT22;4867;48.112;11.622;2023-07-20T16:06:33;29.00;82.70
9658;DHT22;4867;48.112;11.622;2023-07-20T16:09:03;29.40;81.40